Time;durP1;ratioP1;P1;durP2;ratioP2;P2;SDS_P1;SDS_P2;PMS_P1;PMS_P2;Temp;Humidity;BMP_temperature;BMP_pressure;BME280_temperature;BME280_humidity;BME280_pressure;Samples;Min_cycle;Max_cycle;Signal;HPM_P1;HPM_P2
2022/07/31 00:00:08;;;;;;;2.70;1.90;;;;;;;;;;5085337;28;20248;-67
2022/07/31 00:02:36;;;;;;;2.30;1.70;;;;;;;;;;5066919;27;20216;-67
2022/07/31 00:05:04;;;;;;;2.75;2.08;;;;;;;;;;5084444;28;20218;-67
2022/07/31 00:07:31;;;;;;;3.53;2.42;;;;;;;;;;5087869;27;20219;-67
2022/07/31 00:09:59;;;;;;;3.22;2.10;;;;;;;;;;5081497;28;20204;-67
2022/07/31 00:12:26;;;;;;;5.55;2.00;;;;;;;;;;5084695;28;20841;-67
2022/07/31 00:14:53;;;;;;;3.33;1.80;;;;;;;;;;5083360;28;20200;-67
2022/07/31 00:17:21;;;;;;;2.72;1.60;;;;;;;;;;5072118;28;20231;-67
2022/07/31 00:19:48;;;;;;;5.45;2.20;;;;;;;;;;5061150;28;20269;-67
2022/07/31 00:22:15;;;;;;;2.47;1.80;;;;;;;;;;5079039;28;20196;-67
2022/07/31 00:24:43;;;;;;;2.50;2.03;;;;;;;;;;5076825;28;20699;-66
2022/07/31 00:27:10;;;;;;;2.00;1.90;;;;;;;;;;5079883;28;20252;-66
2022/07/31 00:29:38;;;;;;;2.30;2.00;;;;;;;;;;5085698;28;20200;-66
2022/07/31 00:32:05;;;;;;;3.05;1.90;;;;;;;;;;5104543;28;20602;-66
2022/07/31 00:34:33;;;;;;;2.17;1.98;;;;;;;;;;5084218;28;20203;-66
2022/07/31 00:37:00;;;;;;;1.90;1.77;;;;;;;;;;5082093;28;20241;-66
2022/07/31 00:39:29;;;;;;;2.28;1.88;;;;;;;;;;5083971;28;20223;-66
2022/07/31 00:41:57;;;;;;;3.92;1.90;;;;;;;;;;5081260;28;20820;-66
2022/07/31 00:44:24;;;;;;;2.90;2.22;;;;;;;;;;5088730;28;20210;-66
2022/07/31 00:46:52;;;;;;;3.92;2.50;;;;;;;;;;5078603;28;20316;-66
2022/07/31 00:49:19;;;;;;;1.85;1.75;;;;;;;;;;5081080;28;20205;-66
2022/07/31 00:51:47;;;;;;;2.95;1.95;;;;;;;;;;5095038;28;20299;-66
2022/07/31 00:54:14;;;;;;;2.63;1.95;;;;;;;;;;5106074;28;20295;-66
2022/07/31 00:56:49;;;;;;;2.88;1.90;;;;;;;;;;5096556;28;20229;-66
2022/07/31 00:59:17;;;;;;;2.28;2.08;;;;;;;;;;5090477;28;20283;-66
2022/07/31 01:01:51;;;;;;;3.63;1.95;;;;;;;;;;5100343;28;20200;-66
2022/07/31 01:04:18;;;;;;;2.40;2.20;;;;;;;;;;5090081;28;20200;-66
2022/07/31 01:06:46;;;;;;;2.42;1.90;;;;;;;;;;5081924;28;20219;-66
2022/07/31 01:09:15;;;;;;;2.10;1.95;;;;;;;;;;5081298;28;20624;-66
2022/07/31 01:11:49;;;;;;;3.23;2.93;;;;;;;;;;5080118;28;20216;-66
2022/07/31 01:14:18;;;;;;;8.10;4.72;;;;;;;;;;5087174;28;20207;-66
2022/07/31 01:16:50;;;;;;;7.32;4.88;;;;;;;;;;5085010;28;20227;-66
2022/07/31 01:19:24;;;;;;;5.22;3.70;;;;;;;;;;5083415;28;20228;-66
2022/07/31 01:22:20;;;;;;;7.07;4.20;;;;;;;;;;5078120;28;20300;-66
2022/07/31 01:25:00;;;;;;;5.53;4.40;;;;;;;;;;5083987;28;20281;-66
2022/07/31 01:27:46;;;;;;;4.70;3.55;;;;;;;;;;5084615;28;20227;-65
2022/07/31 01:30:16;;;;;;;4.57;3.27;;;;;;;;;;5083351;28;20220;-66
2022/07/31 01:32:46;;;;;;;4.03;2.43;;;;;;;;;;5089613;28;20286;-65
2022/07/31 01:35:14;;;;;;;3.63;3.33;;;;;;;;;;5096554;28;20219;-67
2022/07/31 01:37:52;;;;;;;5.20;4.27;;;;;;;;;;5090959;28;20220;-65
2022/07/31 01:40:25;;;;;;;3.67;3.33;;;;;;;;;;5087216;28;20229;-69
2022/07/31 01:42:55;;;;;;;3.40;3.07;;;;;;;;;;5090262;27;20247;-66
2022/07/31 01:45:24;;;;;;;5.23;3.03;;;;;;;;;;5099887;28;20664;-65
2022/07/31 01:47:52;;;;;;;4.10;3.33;;;;;;;;;;5089218;28;20325;-67
2022/07/31 01:50:21;;;;;;;4.67;3.23;;;;;;;;;;5088620;27;20239;-69
2022/07/31 01:53:08;;;;;;;4.00;3.60;;;;;;;;;;5086454;27;20200;-65
2022/07/31 01:55:37;;;;;;;5.27;2.83;;;;;;;;;;5098820;27;20200;-66
2022/07/31 01:58:26;;;;;;;3.13;2.77;;;;;;;;;;5089388;28;20278;-66
2022/07/31 02:00:57;;;;;;;3.73;3.00;;;;;;;;;;5084840;28;20318;-66
2022/07/31 02:03:27;;;;;;;3.03;2.60;;;;;;;;;;5082507;28;20200;-65
2022/07/31 02:06:15;;;;;;;3.30;3.00;;;;;;;;;;5112764;27;20199;-66
2022/07/31 02:08:47;;;;;;;2.83;2.63;;;;;;;;;;5098481;27;20220;-67
2022/07/31 02:11:15;;;;;;;3.10;2.90;;;;;;;;;;5100478;27;20195;-66
2022/07/31 02:13:44;;;;;;;3.00;2.40;;;;;;;;;;5100657;27;20273;-67
2022/07/31 02:16:12;;;;;;;3.43;2.37;;;;;;;;;;5085805;28;20208;-66
2022/07/31 02:18:41;;;;;;;2.90;2.60;;;;;;;;;;5088700;28;20223;-69
2022/07/31 02:21:09;;;;;;;2.63;2.43;;;;;;;;;;5083159;28;20754;-66
2022/07/31 02:23:37;;;;;;;4.45;2.90;;;;;;;;;;5103001;27;20277;-66
2022/07/31 02:26:05;;;;;;;2.83;2.03;;;;;;;;;;5090143;27;20204;-68
2022/07/31 02:28:35;;;;;;;7.27;6.37;;;;;;;;;;5082789;27;20687;-65
2022/07/31 02:31:02;;;;;;;21.03;15.00;;;;;;;;;;5082660;28;20253;-66
2022/07/31 02:33:30;;;;;;;17.63;13.00;;;;;;;;;;5087322;28;20266;-68
2022/07/31 02:35:58;;;;;;;13.87;10.07;;;;;;;;;;5078447;27;20253;-65
2022/07/31 02:38:26;;;;;;;9.87;7.63;;;;;;;;;;5090641;28;20279;-65
2022/07/31 02:40:55;;;;;;;9.05;6.97;;;;;;;;;;5082874;28;20231;-66
2022/07/31 02:43:24;;;;;;;4.33;3.87;;;;;;;;;;5086741;27;20204;-65
2022/07/31 02:45:51;;;;;;;2.93;2.63;;;;;;;;;;5100185;27;20674;-65
2022/07/31 02:48:19;;;;;;;2.73;2.30;;;;;;;;;;5079042;28;20235;-68
2022/07/31 02:50:46;;;;;;;2.03;1.93;;;;;;;;;;5100954;27;20216;-65
2022/07/31 02:53:14;;;;;;;3.58;2.17;;;;;;;;;;5087193;28;20196;-64
2022/07/31 02:55:46;;;;;;;2.80;2.38;;;;;;;;;;5080846;28;20208;-68
2022/07/31 02:58:13;;;;;;;4.50;1.90;;;;;;;;;;5087033;28;20239;-66
2022/07/31 03:00:41;;;;;;;2.33;2.00;;;;;;;;;;5096259;27;20759;-64
2022/07/31 03:03:08;;;;;;;2.60;1.90;;;;;;;;;;5087464;27;20211;-69
2022/07/31 03:05:36;;;;;;;2.10;2.00;;;;;;;;;;5086031;28;20208;-65
2022/07/31 03:08:03;;;;;;;4.22;2.10;;;;;;;;;;5088836;27;20269;-65
2022/07/31 03:10:30;;;;;;;2.28;2.08;;;;;;;;;;5097820;27;20204;-65
2022/07/31 03:12:58;;;;;;;2.20;1.80;;;;;;;;;;5081537;27;20219;-65
2022/07/31 03:15:27;;;;;;;3.47;2.00;;;;;;;;;;5101140;27;20599;-64
2022/07/31 03:17:55;;;;;;;2.20;2.00;;;;;;;;;;5085505;27;20228;-66
2022/07/31 03:20:24;;;;;;;3.72;1.98;;;;;;;;;;5086545;28;20303;-66
2022/07/31 03:22:51;;;;;;;2.47;1.80;;;;;;;;;;5079692;28;20290;-68
2022/07/31 03:25:18;;;;;;;2.20;2.00;;;;;;;;;;5085742;28;20196;-66
2022/07/31 03:27:49;;;;;;;1.90;1.80;;;;;;;;;;5089567;28;20230;-64
2022/07/31 03:30:26;;;;;;;2.15;1.75;;;;;;;;;;5107133;27;20211;-66
2022/07/31 03:32:54;;;;;;;2.17;1.97;;;;;;;;;;5088068;27;20626;-65
2022/07/31 03:35:22;;;;;;;2.80;1.98;;;;;;;;;;5087765;27;20211;-66
2022/07/31 03:37:50;;;;;;;2.38;1.92;;;;;;;;;;5080314;27;20225;-66
2022/07/31 03:40:17;;;;;;;2.10;1.90;;;;;;;;;;5082863;27;20224;-69
2022/07/31 03:42:45;;;;;;;2.93;2.03;;;;;;;;;;5084337;27;20521;-66
2022/07/31 03:45:13;;;;;;;1.97;1.87;;;;;;;;;;5080351;27;20261;-66
2022/07/31 03:47:40;;;;;;;2.10;2.00;;;;;;;;;;5079980;28;20220;-66
2022/07/31 03:50:08;;;;;;;3.77;1.70;;;;;;;;;;5078704;28;20199;-67
2022/07/31 03:52:36;;;;;;;3.15;1.90;;;;;;;;;;5084548;28;20212;-68
2022/07/31 03:55:03;;;;;;;2.80;1.80;;;;;;;;;;5104582;27;20611;-67
2022/07/31 03:57:32;;;;;;;1.98;1.88;;;;;;;;;;5106148;27;20247;-66
2022/07/31 04:00:01;;;;;;;2.00;1.85;;;;;;;;;;5092542;28;20648;-69
2022/07/31 04:02:29;;;;;;;2.08;1.88;;;;;;;;;;5082336;28;20197;-68
2022/07/31 04:04:58;;;;;;;3.05;1.80;;;;;;;;;;5100829;28;20203;-66
2022/07/31 04:07:26;;;;;;;11.10;6.05;;;;;;;;;;5084380;27;21165;-64
2022/07/31 04:09:53;;;;;;;15.88;9.23;;;;;;;;;;5080238;28;20211;-69
2022/07/31 04:12:21;;;;;;;11.63;5.78;;;;;;;;;;5095567;28;20207;-65
2022/07/31 04:14:48;;;;;;;6.28;4.18;;;;;;;;;;5081417;28;20235;-69
2022/07/31 04:17:16;;;;;;;7.18;3.55;;;;;;;;;;5082948;28;20243;-66
2022/07/31 04:19:43;;;;;;;4.97;3.28;;;;;;;;;;5082636;28;20451;-67
2022/07/31 04:22:10;;;;;;;2.55;2.17;;;;;;;;;;5080177;28;20197;-66
2022/07/31 04:24:38;;;;;;;2.45;1.90;;;;;;;;;;5081467;28;20201;-68
2022/07/31 04:27:05;;;;;;;2.30;2.10;;;;;;;;;;5077386;28;20225;-66
2022/07/31 04:29:38;;;;;;;2.97;1.90;;;;;;;;;;5082925;28;20302;-65
2022/07/31 04:32:06;;;;;;;2.20;1.50;;;;;;;;;;5085899;28;20201;-66
2022/07/31 04:34:34;;;;;;;3.75;1.80;;;;;;;;;;5062940;28;20201;-67
2022/07/31 04:37:02;;;;;;;2.45;1.60;;;;;;;;;;5082319;28;20220;-68
2022/07/31 04:39:29;;;;;;;2.00;1.90;;;;;;;;;;5081778;28;20204;-67
2022/07/31 04:41:56;;;;;;;2.60;1.63;;;;;;;;;;5077414;28;20763;-65
2022/07/31 04:44:24;;;;;;;1.98;1.63;;;;;;;;;;5084460;28;20212;-66
2022/07/31 04:46:51;;;;;;;3.20;1.80;;;;;;;;;;5088068;28;20238;-66
2022/07/31 04:49:19;;;;;;;2.00;1.90;;;;;;;;;;5083969;28;20441;-66
2022/07/31 04:51:46;;;;;;;1.92;1.70;;;;;;;;;;5088183;28;20291;-67
2022/07/31 04:54:14;;;;;;;2.35;1.60;;;;;;;;;;5082000;28;20200;-66
2022/07/31 04:56:41;;;;;;;2.08;1.50;;;;;;;;;;5081364;28;20305;-66
2022/07/31 04:59:10;;;;;;;1.80;1.70;;;;;;;;;;5088004;28;20203;-66
2022/07/31 05:01:38;;;;;;;2.20;1.60;;;;;;;;;;5088719;28;20228;-66
2022/07/31 05:04:07;;;;;;;1.63;1.52;;;;;;;;;;5083398;28;20200;-66
2022/07/31 05:06:41;;;;;;;1.85;1.58;;;;;;;;;;5083405;28;20249;-67
2022/07/31 05:09:09;;;;;;;3.17;1.60;;;;;;;;;;5080595;27;20248;-67
2022/07/31 05:11:45;;;;;;;2.05;1.60;;;;;;;;;;5091945;27;20259;-67
2022/07/31 05:14:13;;;;;;;1.55;1.45;;;;;;;;;;5092988;27;20206;-69
2022/07/31 05:16:41;;;;;;;1.65;1.17;;;;;;;;;;5107258;27;20253;-66
2022/07/31 05:19:08;;;;;;;2.03;1.65;;;;;;;;;;5093951;28;20197;-65
2022/07/31 05:21:41;;;;;;;1.48;1.38;;;;;;;;;;5095961;28;20770;-69
2022/07/31 05:24:21;;;;;;;2.10;1.60;;;;;;;;;;5086511;27;20207;-65
2022/07/31 05:27:00;;;;;;;1.70;1.60;;;;;;;;;;5098650;27;20220;-69
2022/07/31 05:29:27;;;;;;;3.22;1.60;;;;;;;;;;5089745;27;20208;-66
2022/07/31 05:31:55;;;;;;;2.83;1.50;;;;;;;;;;5090090;27;20707;-66
2022/07/31 05:34:36;;;;;;;1.77;1.55;;;;;;;;;;5085140;28;20218;-66
2022/07/31 05:37:04;;;;;;;1.90;1.48;;;;;;;;;;5087257;28;20228;-66
2022/07/31 05:39:31;;;;;;;2.80;1.40;;;;;;;;;;5118378;27;20183;-65
2022/07/31 05:41:58;;;;;;;1.77;1.13;;;;;;;;;;5086159;28;20221;-66
2022/07/31 05:44:26;;;;;;;4.35;1.30;;;;;;;;;;5085527;27;20287;-64
2022/07/31 05:46:53;;;;;;;1.10;1.10;;;;;;;;;;5081003;27;21879;-66
2022/07/31 05:49:20;;;;;;;1.50;1.40;;;;;;;;;;5080869;28;20191;-66
2022/07/31 05:51:52;;;;;;;1.55;1.40;;;;;;;;;;5091700;27;20215;-66
2022/07/31 05:54:21;;;;;;;2.05;1.30;;;;;;;;;;5093981;28;20199;-66
2022/07/31 05:56:48;;;;;;;1.38;1.27;;;;;;;;;;5087396;27;20706;-64
2022/07/31 05:59:15;;;;;;;1.60;1.50;;;;;;;;;;5085105;28;20200;-66
2022/07/31 06:01:43;;;;;;;1.58;1.17;;;;;;;;;;5093184;28;20770;-68
2022/07/31 06:04:10;;;;;;;1.77;1.20;;;;;;;;;;5103405;27;20235;-65
2022/07/31 06:06:38;;;;;;;1.55;1.20;;;;;;;;;;5081650;28;20200;-67
2022/07/31 06:09:05;;;;;;;1.95;1.30;;;;;;;;;;5075342;28;20213;-66
2022/07/31 06:11:32;;;;;;;3.33;1.38;;;;;;;;;;5083361;28;20602;-66
2022/07/31 06:14:00;;;;;;;1.50;1.38;;;;;;;;;;5103995;27;20264;-67
2022/07/31 06:16:27;;;;;;;1.50;1.40;;;;;;;;;;5083704;28;20216;-67
2022/07/31 06:18:55;;;;;;;1.38;1.27;;;;;;;;;;5090301;28;20204;-67
2022/07/31 06:21:22;;;;;;;2.92;1.35;;;;;;;;;;5082919;28;20220;-67
2022/07/31 06:23:55;;;;;;;1.38;1.23;;;;;;;;;;5086118;28;20193;-65
2022/07/31 06:26:22;;;;;;;1.55;1.42;;;;;;;;;;5090082;28;20328;-65
2022/07/31 06:28:53;;;;;;;2.92;1.20;;;;;;;;;;5085035;27;20212;-69
2022/07/31 06:31:21;;;;;;;1.30;1.20;;;;;;;;;;5101721;27;20216;-65
2022/07/31 06:33:48;;;;;;;1.70;1.23;;;;;;;;;;5073112;28;20249;-67
2022/07/31 06:36:17;;;;;;;2.15;1.25;;;;;;;;;;5082060;28;20675;-67
2022/07/31 06:38:45;;;;;;;1.33;1.23;;;;;;;;;;5081091;28;20229;-68
2022/07/31 06:41:43;;;;;;;1.42;1.20;;;;;;;;;;5095939;27;20314;-66
2022/07/31 06:44:01;;;;;;;1.50;1.30;;;;;;;;;;5097075;27;20250;-66
2022/07/31 06:46:28;;;;;;;2.25;1.27;;;;;;;;;;5108608;27;20307;-68
2022/07/31 06:48:55;;;;;;;2.15;1.30;;;;;;;;;;5081743;28;20258;-66
2022/07/31 06:51:23;;;;;;;3.58;1.63;;;;;;;;;;5085780;27;20212;-66
2022/07/31 06:53:59;;;;;;;1.30;1.20;;;;;;;;;;5075032;27;21406;-67
2022/07/31 06:56:26;;;;;;;3.33;1.30;;;;;;;;;;5078972;28;20216;-67
2022/07/31 06:58:54;;;;;;;1.48;1.23;;;;;;;;;;5081400;27;20208;-66
2022/07/31 07:01:21;;;;;;;1.80;1.63;;;;;;;;;;5100787;27;20235;-68
2022/07/31 07:03:48;;;;;;;1.70;1.60;;;;;;;;;;5084823;28;20208;-71
2022/07/31 07:06:16;;;;;;;1.40;1.30;;;;;;;;;;5098259;27;20239;-68
2022/07/31 07:08:44;;;;;;;3.17;1.30;;;;;;;;;;5097060;27;20269;-66
2022/07/31 07:11:11;;;;;;;1.42;1.33;;;;;;;;;;5081542;27;20203;-66
2022/07/31 07:13:39;;;;;;;2.03;1.20;;;;;;;;;;5082294;28;20201;-68
2022/07/31 07:16:13;;;;;;;1.80;1.40;;;;;;;;;;5082024;28;20215;-67
2022/07/31 07:18:44;;;;;;;2.45;2.10;;;;;;;;;;5080825;27;20737;-70
2022/07/31 07:21:11;;;;;;;3.08;1.38;;;;;;;;;;5085041;27;20220;-68
2022/07/31 07:23:39;;;;;;;1.85;1.65;;;;;;;;;;5076809;28;20196;-68
2022/07/31 07:26:07;;;;;;;1.38;1.33;;;;;;;;;;5091550;27;20248;-67
2022/07/31 07:28:34;;;;;;;1.42;1.25;;;;;;;;;;5074834;28;20230;-70
2022/07/31 07:31:03;;;;;;;2.78;1.60;;;;;;;;;;5098711;27;20207;-67
2022/07/31 07:33:31;;;;;;;1.45;1.35;;;;;;;;;;5092700;27;21897;-71
2022/07/31 07:36:09;;;;;;;3.95;2.20;;;;;;;;;;5082066;28;20671;-68
2022/07/31 07:38:52;;;;;;;3.28;1.80;;;;;;;;;;5087593;28;20197;-67
2022/07/31 07:41:22;;;;;;;5.95;1.80;;;;;;;;;;5086420;28;20239;-68
2022/07/31 07:43:49;;;;;;;2.25;1.60;;;;;;;;;;5074462;27;20204;-67
2022/07/31 07:46:19;;;;;;;2.85;1.33;;;;;;;;;;5077200;27;20224;-67
2022/07/31 07:48:47;;;;;;;2.28;1.90;;;;;;;;;;5076313;28;20871;-67
2022/07/31 07:51:15;;;;;;;2.10;1.60;;;;;;;;;;5074865;28;20310;-69
2022/07/31 07:53:42;;;;;;;3.15;1.58;;;;;;;;;;5102985;27;20219;-65
2022/07/31 07:56:10;;;;;;;3.85;1.30;;;;;;;;;;5082726;28;20196;-67
2022/07/31 07:58:37;;;;;;;2.58;1.30;;;;;;;;;;5082371;28;20216;-65
2022/07/31 08:01:04;;;;;;;2.42;1.48;;;;;;;;;;5076260;28;20755;-67
2022/07/31 08:03:32;;;;;;;3.30;1.48;;;;;;;;;;5085262;28;20244;-65
2022/07/31 08:06:18;;;;;;;2.20;1.45;;;;;;;;;;5088503;27;20714;-67
2022/07/31 08:08:46;;;;;;;2.58;1.30;;;;;;;;;;5081599;28;20662;-68
2022/07/31 08:11:14;;;;;;;2.30;1.42;;;;;;;;;;5083122;27;20679;-66
2022/07/31 08:13:44;;;;;;;1.30;1.20;;;;;;;;;;5082305;28;20276;-65
2022/07/31 08:16:17;;;;;;;3.35;1.42;;;;;;;;;;5079504;27;20211;-68
2022/07/31 08:18:44;;;;;;;1.40;1.30;;;;;;;;;;5078373;28;20613;-68
2022/07/31 08:21:12;;;;;;;3.40;1.20;;;;;;;;;;5080072;28;20730;-71
2022/07/31 08:23:39;;;;;;;2.28;1.40;;;;;;;;;;5078399;28;20188;-65
2022/07/31 08:26:07;;;;;;;2.65;1.45;;;;;;;;;;5076986;28;20193;-69
2022/07/31 08:28:35;;;;;;;2.25;1.33;;;;;;;;;;5082506;28;20315;-66
2022/07/31 08:31:02;;;;;;;2.90;1.40;;;;;;;;;;5099800;28;20219;-66
2022/07/31 08:33:31;;;;;;;1.10;1.10;;;;;;;;;;5081850;28;20212;-68
2022/07/31 08:36:00;;;;;;;2.10;1.30;;;;;;;;;;5077126;28;20212;-66
2022/07/31 08:38:27;;;;;;;1.20;1.20;;;;;;;;;;5082133;28;20228;-66
2022/07/31 08:40:55;;;;;;;1.33;1.30;;;;;;;;;;5082623;28;20213;-70
2022/07/31 08:43:22;;;;;;;1.20;1.10;;;;;;;;;;5081731;27;20203;-67
2022/07/31 08:46:10;;;;;;;1.50;1.40;;;;;;;;;;5093338;28;20204;-68
2022/07/31 08:48:41;;;;;;;1.15;1.13;;;;;;;;;;5085048;28;20292;-70
2022/07/31 08:51:12;;;;;;;3.50;1.42;;;;;;;;;;5082216;27;20732;-67
2022/07/31 08:53:42;;;;;;;4.78;1.40;;;;;;;;;;5084813;27;20200;-66
2022/07/31 08:56:10;;;;;;;1.45;1.35;;;;;;;;;;5085877;28;20245;-68
2022/07/31 08:58:37;;;;;;;2.00;1.45;;;;;;;;;;5085456;27;20334;-67
2022/07/31 09:01:07;;;;;;;1.40;1.30;;;;;;;;;;5104828;27;20227;-69
2022/07/31 09:03:35;;;;;;;4.38;1.95;;;;;;;;;;5082885;27;20304;-69
2022/07/31 09:06:03;;;;;;;2.53;1.88;;;;;;;;;;5090730;27;20195;-66
2022/07/31 09:08:34;;;;;;;1.65;1.17;;;;;;;;;;5083927;28;20219;-70
2022/07/31 09:11:10;;;;;;;3.20;1.40;;;;;;;;;;5087595;28;20213;-66
2022/07/31 09:13:37;;;;;;;1.52;1.42;;;;;;;;;;5087320;28;20211;-65
2022/07/31 09:16:05;;;;;;;1.85;1.58;;;;;;;;;;5084940;27;20199;-66
2022/07/31 09:18:33;;;;;;;1.58;1.40;;;;;;;;;;5086244;28;20726;-66
2022/07/31 09:21:01;;;;;;;2.15;1.38;;;;;;;;;;5088560;27;20666;-67
2022/07/31 09:23:29;;;;;;;1.40;1.30;;;;;;;;;;5092368;27;20199;-67
2022/07/31 09:26:01;;;;;;;2.65;1.50;;;;;;;;;;5094835;27;20590;-67
2022/07/31 09:28:40;;;;;;;1.30;1.20;;;;;;;;;;5086200;28;20220;-66
2022/07/31 09:31:08;;;;;;;1.80;1.40;;;;;;;;;;5100495;27;20208;-69
2022/07/31 09:33:38;;;;;;;1.25;1.15;;;;;;;;;;5084647;28;20253;-65
2022/07/31 09:36:12;;;;;;;3.47;1.50;;;;;;;;;;5089854;27;20573;-66
2022/07/31 09:38:41;;;;;;;1.60;1.38;;;;;;;;;;5092006;27;20652;-65
2022/07/31 09:41:09;;;;;;;1.83;1.50;;;;;;;;;;5089802;27;20200;-65
2022/07/31 09:44:04;;;;;;;1.40;1.30;;;;;;;;;;5088914;28;20199;-66
2022/07/31 09:46:44;;;;;;;2.65;1.38;;;;;;;;;;5089611;28;20212;-66
2022/07/31 09:49:12;;;;;;;3.40;1.50;;;;;;;;;;5080524;28;20570;-66
2022/07/31 09:51:43;;;;;;;5.07;1.67;;;;;;;;;;5086737;28;20212;-65
2022/07/31 09:54:21;;;;;;;2.80;1.50;;;;;;;;;;5082867;28;20937;-66
2022/07/31 09:56:49;;;;;;;2.40;1.70;;;;;;;;;;5084954;28;20254;-66
2022/07/31 09:59:16;;;;;;;2.28;1.40;;;;;;;;;;5084058;28;20303;-65
2022/07/31 10:01:47;;;;;;;2.28;1.60;;;;;;;;;;5079937;28;20228;-68
2022/07/31 10:04:18;;;;;;;1.77;1.50;;;;;;;;;;5081985;28;20208;-67
2022/07/31 10:06:50;;;;;;;2.92;1.75;;;;;;;;;;5085817;28;20672;-69
2022/07/31 10:09:19;;;;;;;2.50;1.90;;;;;;;;;;5085135;28;20198;-64
2022/07/31 10:11:47;;;;;;;2.65;1.75;;;;;;;;;;5081442;28;20229;-70
2022/07/31 10:14:18;;;;;;;1.70;1.58;;;;;;;;;;5080447;28;20196;-67
2022/07/31 10:16:46;;;;;;;2.30;1.30;;;;;;;;;;5085906;28;20220;-66
2022/07/31 10:19:14;;;;;;;2.10;1.48;;;;;;;;;;5085713;28;20302;-66
2022/07/31 10:21:43;;;;;;;2.10;1.40;;;;;;;;;;5080778;28;20232;-66
2022/07/31 10:24:14;;;;;;;4.03;1.60;;;;;;;;;;5083439;28;20205;-66
2022/07/31 10:26:41;;;;;;;2.22;1.70;;;;;;;;;;5082181;28;20192;-64
2022/07/31 10:29:27;;;;;;;3.17;1.45;;;;;;;;;;5073987;28;22263;-67
2022/07/31 10:31:59;;;;;;;1.33;1.23;;;;;;;;;;5077790;28;20254;-64
2022/07/31 10:34:27;;;;;;;1.65;1.50;;;;;;;;;;5099575;28;20214;-70
2022/07/31 10:36:58;;;;;;;3.75;1.40;;;;;;;;;;5090790;28;20319;-65
2022/07/31 10:39:28;;;;;;;1.77;1.65;;;;;;;;;;5074615;28;20257;-69
2022/07/31 10:42:11;;;;;;;1.60;1.30;;;;;;;;;;5099664;28;20297;-66
2022/07/31 10:47:22;;;;;;;3.42;1.60;;;;;;;;;;5076555;27;21115;-67
2022/07/31 10:49:52;;;;;;;3.50;2.15;;;;;;;;;;5051839;28;20264;-66
2022/07/31 10:52:30;;;;;;;1.25;1.17;;;;;;;;;;5041167;28;20287;-65
2022/07/31 10:55:00;;;;;;;3.75;1.38;;;;;;;;;;5038605;28;20309;-67
2022/07/31 10:57:29;;;;;;;2.10;1.38;;;;;;;;;;5041531;28;20261;-66
2022/07/31 10:59:56;;;;;;;1.60;1.50;;;;;;;;;;5045048;28;20213;-65
2022/07/31 11:02:28;;;;;;;1.88;1.50;;;;;;;;;;5043983;28;20266;-66
2022/07/31 11:05:06;;;;;;;2.53;1.70;;;;;;;;;;5043652;28;20241;-67
2022/07/31 11:07:34;;;;;;;1.75;1.38;;;;;;;;;;5053638;28;20228;-65
2022/07/31 11:10:15;;;;;;;1.55;1.35;;;;;;;;;;5053403;28;20263;-65
2022/07/31 11:12:43;;;;;;;3.28;1.27;;;;;;;;;;5051200;28;20193;-68
2022/07/31 11:15:18;;;;;;;3.38;1.50;;;;;;;;;;5049600;28;20252;-67
2022/07/31 11:17:46;;;;;;;1.58;1.42;;;;;;;;;;5067623;28;20221;-67
2022/07/31 11:20:33;;;;;;;6.05;1.48;;;;;;;;;;5043549;28;20226;-67
2022/07/31 11:23:05;;;;;;;1.60;1.50;;;;;;;;;;5033945;28;20687;-67
2022/07/31 11:25:34;;;;;;;1.30;1.20;;;;;;;;;;5038667;28;20221;-68
2022/07/31 11:28:12;;;;;;;2.85;1.45;;;;;;;;;;5061051;28;20220;-68
2022/07/31 11:30:54;;;;;;;1.83;1.50;;;;;;;;;;5024068;28;20233;-67
2022/07/31 11:33:30;;;;;;;1.63;1.50;;;;;;;;;;5042356;28;20214;-68
2022/07/31 11:36:16;;;;;;;1.58;1.40;;;;;;;;;;5049670;28;20205;-66
2022/07/31 11:38:45;;;;;;;1.50;1.40;;;;;;;;;;5059211;28;20207;-66
2022/07/31 11:41:13;;;;;;;2.72;1.40;;;;;;;;;;5051474;28;20217;-68
2022/07/31 11:43:45;;;;;;;1.23;1.10;;;;;;;;;;5044740;28;20202;-67
2022/07/31 11:46:15;;;;;;;1.27;1.17;;;;;;;;;;5034065;28;20228;-68
2022/07/31 11:48:42;;;;;;;2.83;1.30;;;;;;;;;;5049334;28;20722;-68
2022/07/31 11:51:17;;;;;;;2.10;1.38;;;;;;;;;;5040447;28;20670;-67
2022/07/31 11:53:44;;;;;;;1.48;1.38;;;;;;;;;;5036609;28;20212;-67
2022/07/31 11:56:23;;;;;;;1.33;1.30;;;;;;;;;;5043482;28;20204;-69
2022/07/31 11:58:52;;;;;;;1.67;1.58;;;;;;;;;;5036418;28;21330;-67
2022/07/31 12:01:24;;;;;;;5.22;1.50;;;;;;;;;;5030910;28;20209;-66
2022/07/31 12:03:51;;;;;;;1.50;1.40;;;;;;;;;;5034401;28;20202;-66
2022/07/31 12:06:19;;;;;;;1.48;1.38;;;;;;;;;;5033788;28;20252;-67
2022/07/31 12:08:50;;;;;;;2.05;1.30;;;;;;;;;;5040503;28;20226;-67
2022/07/31 12:11:18;;;;;;;6.13;1.65;;;;;;;;;;5055808;28;20668;-66
2022/07/31 12:13:46;;;;;;;1.60;1.50;;;;;;;;;;5033114;28;20603;-65
2022/07/31 12:16:14;;;;;;;1.40;1.30;;;;;;;;;;5027192;28;20214;-65
2022/07/31 12:18:49;;;;;;;3.55;1.60;;;;;;;;;;5020260;28;20291;-66
2022/07/31 12:21:17;;;;;;;1.50;1.30;;;;;;;;;;5029629;28;20201;-66
2022/07/31 12:23:52;;;;;;;2.33;1.30;;;;;;;;;;5026584;28;20207;-68
2022/07/31 12:26:32;;;;;;;2.15;1.50;;;;;;;;;;5024497;28;20229;-68
2022/07/31 12:29:07;;;;;;;1.90;1.40;;;;;;;;;;5029224;28;20205;-68
2022/07/31 12:31:50;;;;;;;1.67;1.50;;;;;;;;;;5028527;28;20210;-66
2022/07/31 12:34:33;;;;;;;1.35;1.23;;;;;;;;;;5023758;28;20667;-67
2022/07/31 12:37:02;;;;;;;1.83;1.30;;;;;;;;;;5032322;28;20291;-67
2022/07/31 12:39:38;;;;;;;2.90;1.50;;;;;;;;;;5036865;28;20214;-68
2022/07/31 12:42:25;;;;;;;2.42;1.30;;;;;;;;;;5032047;28;20210;-68
2022/07/31 12:44:59;;;;;;;3.17;1.45;;;;;;;;;;5027937;28;20221;-68
2022/07/31 12:47:46;;;;;;;1.60;1.50;;;;;;;;;;5021318;28;20234;-66
2022/07/31 12:50:19;;;;;;;1.50;1.40;;;;;;;;;;5026983;28;20198;-68
2022/07/31 12:52:46;;;;;;;3.22;2.15;;;;;;;;;;5030541;28;20660;-68
2022/07/31 12:55:15;;;;;;;2.95;2.20;;;;;;;;;;5021294;28;20211;-67
2022/07/31 12:57:44;;;;;;;3.95;1.95;;;;;;;;;;5039258;28;20233;-68
2022/07/31 13:00:21;;;;;;;1.40;1.30;;;;;;;;;;5043955;28;20213;-67
2022/07/31 13:02:50;;;;;;;2.20;1.40;;;;;;;;;;5027871;28;20206;-68
2022/07/31 13:05:18;;;;;;;1.27;1.17;;;;;;;;;;5033463;28;20206;-67
2022/07/31 13:07:45;;;;;;;2.63;1.35;;;;;;;;;;5027491;28;20229;-68
2022/07/31 13:10:13;;;;;;;1.30;1.20;;;;;;;;;;5020092;28;20229;-67
2022/07/31 13:12:50;;;;;;;2.70;1.20;;;;;;;;;;5030745;28;20608;-68
2022/07/31 13:15:20;;;;;;;1.92;1.30;;;;;;;;;;5038163;28;20206;-68
2022/07/31 13:17:49;;;;;;;1.55;1.40;;;;;;;;;;5054512;28;20742;-67
2022/07/31 13:20:17;;;;;;;2.22;1.50;;;;;;;;;;5043917;28;20213;-67
2022/07/31 13:22:45;;;;;;;3.03;1.30;;;;;;;;;;5041830;28;20608;-67
2022/07/31 13:25:13;;;;;;;2.03;1.83;;;;;;;;;;5025761;28;20211;-68
2022/07/31 13:27:40;;;;;;;2.45;1.50;;;;;;;;;;5024992;28;20276;-67
2022/07/31 13:30:08;;;;;;;1.85;1.17;;;;;;;;;;5025449;28;20579;-67
2022/07/31 13:32:35;;;;;;;1.50;1.40;;;;;;;;;;5057565;28;20206;-67
2022/07/31 13:35:03;;;;;;;3.90;1.52;;;;;;;;;;5024671;28;20726;-66
2022/07/31 13:37:52;;;;;;;2.22;1.30;;;;;;;;;;5023653;28;20234;-68
2022/07/31 13:41:19;;;;;;;2.35;1.30;;;;;;;;;;5021216;28;22903;-67
2022/07/31 13:43:06;;;;;;;1.50;1.40;;;;;;;;;;5030172;28;20217;-67
2022/07/31 13:45:34;;;;;;;1.73;1.40;;;;;;;;;;5035784;28;20211;-68
2022/07/31 13:48:01;;;;;;;1.40;1.33;;;;;;;;;;5029737;28;20222;-67
2022/07/31 13:50:36;;;;;;;1.67;1.40;;;;;;;;;;5037906;28;20206;-67
2022/07/31 13:53:03;;;;;;;2.38;1.30;;;;;;;;;;5017554;28;20206;-68
2022/07/31 13:55:30;;;;;;;1.40;1.30;;;;;;;;;;5020786;28;20241;-66
2022/07/31 13:57:59;;;;;;;1.50;1.40;;;;;;;;;;5015631;28;20222;-67
2022/07/31 14:00:28;;;;;;;3.40;1.40;;;;;;;;;;5026236;28;20218;-67
2022/07/31 14:02:55;;;;;;;3.25;1.50;;;;;;;;;;5024953;28;20670;-66
2022/07/31 14:05:23;;;;;;;1.70;1.35;;;;;;;;;;5035770;28;20245;-66
2022/07/31 14:07:54;;;;;;;2.10;1.15;;;;;;;;;;5025606;28;20234;-67
2022/07/31 14:10:21;;;;;;;1.35;1.25;;;;;;;;;;5021953;28;20386;-67
2022/07/31 14:12:49;;;;;;;1.58;1.48;;;;;;;;;;5028727;28;20198;-67
2022/07/31 14:15:17;;;;;;;2.15;1.30;;;;;;;;;;5025469;28;20640;-66
2022/07/31 14:17:44;;;;;;;1.58;1.30;;;;;;;;;;5025485;28;20221;-66
2022/07/31 14:20:12;;;;;;;2.75;1.23;;;;;;;;;;5041542;28;20210;-67
2022/07/31 14:22:39;;;;;;;1.85;1.27;;;;;;;;;;5023157;28;20838;-65
2022/07/31 14:25:07;;;;;;;2.17;1.38;;;;;;;;;;5020256;28;20210;-66
2022/07/31 14:27:37;;;;;;;1.73;1.38;;;;;;;;;;5032345;28;20233;-67
2022/07/31 14:30:09;;;;;;;2.40;1.20;;;;;;;;;;5038403;28;20233;-66
2022/07/31 14:32:36;;;;;;;1.10;1.10;;;;;;;;;;5030901;28;20555;-65
2022/07/31 14:35:04;;;;;;;1.75;1.20;;;;;;;;;;5021505;28;21198;-66
2022/07/31 14:37:35;;;;;;;2.20;1.50;;;;;;;;;;5018197;28;20241;-67
2022/07/31 14:40:05;;;;;;;2.08;1.25;;;;;;;;;;5030674;28;20210;-67
2022/07/31 14:42:33;;;;;;;1.40;1.30;;;;;;;;;;5023011;28;20199;-66
2022/07/31 14:45:05;;;;;;;4.88;1.20;;;;;;;;;;5022955;28;21628;-66
2022/07/31 14:47:35;;;;;;;2.58;1.25;;;;;;;;;;5022010;28;20356;-66
2022/07/31 14:50:03;;;;;;;3.20;1.42;;;;;;;;;;5024268;28;20205;-66
2022/07/31 14:52:39;;;;;;;2.45;1.20;;;;;;;;;;5041900;28;20206;-67
2022/07/31 14:55:06;;;;;;;2.80;1.30;;;;;;;;;;5029525;28;20202;-67
2022/07/31 14:57:34;;;;;;;1.63;1.40;;;;;;;;;;5017354;28;20589;-67
2022/07/31 15:00:01;;;;;;;1.30;1.20;;;;;;;;;;5036174;28;20696;-66
2022/07/31 15:02:28;;;;;;;3.20;1.30;;;;;;;;;;5020532;28;20270;-66